createdAt,value
2018-02-15T00:01:08.805Z,14.63
2018-02-15T00:03:41.324Z,14.83
2018-02-15T00:06:13.824Z,15.00
2018-02-15T00:08:46.418Z,15.53
2018-02-15T00:11:18.912Z,15.53
2018-02-15T00:13:51.439Z,15.47
2018-02-15T00:16:23.940Z,14.63
2018-02-15T00:18:56.466Z,15.43
2018-02-15T00:21:28.997Z,16.07
2018-02-15T00:24:01.516Z,15.33
2018-02-15T00:26:34.018Z,14.43
2018-02-15T00:29:06.543Z,14.87
2018-02-15T00:31:39.036Z,14.70
2018-02-15T00:34:11.561Z,14.80
2018-02-15T00:36:44.080Z,15.60
2018-02-15T00:39:16.611Z,14.20
2018-02-15T00:41:49.186Z,15.43
2018-02-15T00:44:21.706Z,14.70
2018-02-15T00:46:54.220Z,14.73
2018-02-15T00:49:26.769Z,14.37
2018-02-15T00:51:59.310Z,15.33
2018-02-15T00:54:31.958Z,14.87
2018-02-15T00:57:04.527Z,15.13
2018-02-15T00:59:37.064Z,14.93
2018-02-15T01:02:09.602Z,12.33
2018-02-15T01:04:42.104Z,14.93
2018-02-15T01:07:14.629Z,14.63
2018-02-15T01:09:47.140Z,14.27
2018-02-15T01:12:19.680Z,14.70
2018-02-15T01:14:52.186Z,15.17
2018-02-15T01:17:24.730Z,15.43
2018-02-15T01:19:57.307Z,15.27
2018-02-15T01:22:29.860Z,15.13
2018-02-15T01:25:02.384Z,15.10
2018-02-15T01:27:34.926Z,15.30
2018-02-15T01:30:07.426Z,14.90
2018-02-15T01:32:39.947Z,14.80
2018-02-15T01:35:12.465Z,14.53
2018-02-15T01:37:45.014Z,14.70
2018-02-15T01:40:17.529Z,16.10
2018-02-15T01:42:50.061Z,15.53
2018-02-15T01:45:22.576Z,15.40
2018-02-15T01:47:55.150Z,15.43
2018-02-15T01:50:27.711Z,15.90
2018-02-15T01:53:00.244Z,16.17
2018-02-15T01:55:33.583Z,15.70
2018-02-15T01:58:06.111Z,15.60
2018-02-15T02:00:38.667Z,14.90
2018-02-15T02:03:11.195Z,15.93
2018-02-15T02:05:43.908Z,15.40
2018-02-15T02:08:16.465Z,15.43
2018-02-15T02:10:48.977Z,16.10
2018-02-15T02:13:21.502Z,16.10
2018-02-15T02:15:54.016Z,15.73
2018-02-15T02:18:26.537Z,16.77
2018-02-15T02:20:59.034Z,16.30
2018-02-15T02:23:31.555Z,14.97
2018-02-15T02:26:04.070Z,15.80
2018-02-15T02:28:36.587Z,16.00
2018-02-15T02:31:09.097Z,15.80
2018-02-15T02:33:41.629Z,15.77
2018-02-15T02:36:14.173Z,15.77
2018-02-15T02:38:46.769Z,16.47
2018-02-15T02:41:19.290Z,16.57
2018-02-15T02:43:51.830Z,15.70
2018-02-15T02:46:24.338Z,16.83
2018-02-15T02:48:56.869Z,15.90
2018-02-15T02:51:29.361Z,16.53
2018-02-15T02:54:01.892Z,15.93
2018-02-15T02:56:34.441Z,16.07
2018-02-15T02:59:06.974Z,16.57
2018-02-15T03:01:39.485Z,17.23
2018-02-15T03:04:12.068Z,17.30
2018-02-15T03:06:44.578Z,17.13
2018-02-15T03:09:17.098Z,17.90
2018-02-15T03:11:49.719Z,16.37
2018-02-15T03:14:22.263Z,18.17
2018-02-15T03:16:54.793Z,17.67
2018-02-15T03:19:27.327Z,17.43
2018-02-15T03:21:59.843Z,17.53
2018-02-15T03:24:32.383Z,18.10
2018-02-15T03:27:04.894Z,17.97
2018-02-15T03:29:37.409Z,17.27
2018-02-15T03:32:09.909Z,17.67
2018-02-15T03:34:42.437Z,18.33
2018-02-15T03:37:14.936Z,16.77
2018-02-15T03:39:47.471Z,17.97
2018-02-15T03:42:19.980Z,16.77
2018-02-15T03:44:52.509Z,17.60
2018-02-15T03:47:25.012Z,17.43
2018-02-15T03:49:57.538Z,17.50
2018-02-15T03:52:30.050Z,17.87
2018-02-15T03:55:02.614Z,18.20
2018-02-15T03:57:35.130Z,17.27
2018-02-15T04:00:07.660Z,18.00
2018-02-15T04:02:40.165Z,18.67
2018-02-15T04:05:12.702Z,18.13
2018-02-15T04:07:45.204Z,18.50
2018-02-15T04:10:17.738Z,18.50
2018-02-15T04:12:50.246Z,19.53
2018-02-15T04:15:22.780Z,19.03
2018-02-15T04:17:55.287Z,19.47
2018-02-15T04:20:27.837Z,18.23
2018-02-15T04:23:00.347Z,18.63
2018-02-15T04:25:32.902Z,20.00
2018-02-15T04:28:05.399Z,17.93
2018-02-15T04:30:37.945Z,18.27
2018-02-15T04:33:10.465Z,18.10
2018-02-15T04:35:42.991Z,18.33
2018-02-15T04:38:15.494Z,18.57
2018-02-15T04:40:48.035Z,19.37
2018-02-15T04:43:20.541Z,18.83
2018-02-15T04:45:53.076Z,18.67
2018-02-15T04:48:25.690Z,17.90
2018-02-15T04:50:58.243Z,19.03
2018-02-15T04:53:30.750Z,18.57
2018-02-15T04:56:03.283Z,18.70
2018-02-15T04:58:35.792Z,18.67
2018-02-15T05:01:08.339Z,19.30
2018-02-15T05:03:40.856Z,19.37
2018-02-15T05:06:13.414Z,19.73
2018-02-15T05:08:45.917Z,19.40
2018-02-15T05:11:18.474Z,20.50
2018-02-15T05:13:50.981Z,19.87
2018-02-15T05:16:23.514Z,18.93
2018-02-15T05:18:56.018Z,19.30
2018-02-15T05:21:28.567Z,20.13
2018-02-15T05:24:01.091Z,20.40
2018-02-15T05:26:33.644Z,20.37
2018-02-15T05:29:06.151Z,19.10
2018-02-15T05:31:38.690Z,19.43
2018-02-15T05:34:11.197Z,18.67
2018-02-15T05:36:43.742Z,19.37
2018-02-15T05:39:16.261Z,19.93
2018-02-15T05:41:48.796Z,20.03
2018-02-15T05:44:21.291Z,20.87
2018-02-15T05:46:53.831Z,20.17
2018-02-15T05:49:26.341Z,18.90
2018-02-15T05:51:58.887Z,21.60
2018-02-15T05:54:31.402Z,20.57
2018-02-15T05:57:03.949Z,19.40
2018-02-15T05:59:36.490Z,19.57
2018-02-15T06:02:09.037Z,19.93
2018-02-15T06:04:41.552Z,19.83
2018-02-15T06:07:14.108Z,20.50
2018-02-15T06:09:46.615Z,20.57
2018-02-15T06:12:19.141Z,20.80
2018-02-15T06:14:51.660Z,21.27
2018-02-15T06:17:24.234Z,20.83
2018-02-15T06:19:56.737Z,19.70
2018-02-15T06:22:29.292Z,21.30
2018-02-15T06:25:01.798Z,20.40
2018-02-15T06:27:34.338Z,19.77
2018-02-15T06:30:06.838Z,19.87
2018-02-15T06:32:39.404Z,19.43
2018-02-15T06:35:11.910Z,20.37
2018-02-15T06:37:45.363Z,21.23
2018-02-15T06:40:17.867Z,20.73
2018-02-15T06:42:50.393Z,19.67
2018-02-15T06:45:22.896Z,21.00
2018-02-15T06:47:55.411Z,20.60
2018-02-15T06:50:27.922Z,20.50
2018-02-15T06:53:00.462Z,20.73
2018-02-15T06:55:32.969Z,20.40
2018-02-15T06:58:05.493Z,20.03
2018-02-15T07:00:38.003Z,20.90
2018-02-15T07:03:10.561Z,20.37
2018-02-15T07:05:43.065Z,20.27
2018-02-15T07:08:15.602Z,19.23
2018-02-15T07:10:48.095Z,20.83
2018-02-15T07:13:20.650Z,20.20
2018-02-15T07:15:53.162Z,20.03
2018-02-15T07:18:25.710Z,20.13
2018-02-15T07:20:58.215Z,19.90
2018-02-15T07:23:30.766Z,20.70
2018-02-15T07:26:03.294Z,19.60
2018-02-15T07:28:35.815Z,19.90
2018-02-15T07:31:08.317Z,19.80
2018-02-15T07:33:40.867Z,18.90
2018-02-15T07:36:13.365Z,18.67
2018-02-15T07:38:45.898Z,20.50
2018-02-15T07:41:18.396Z,18.70
2018-02-15T07:43:50.936Z,19.77
2018-02-15T07:46:23.446Z,20.17
2018-02-15T07:48:55.970Z,19.37
2018-02-15T07:51:28.493Z,19.63
2018-02-15T07:54:01.043Z,17.67
2018-02-15T07:56:33.569Z,18.60
2018-02-15T07:59:06.118Z,17.30
2018-02-15T08:01:38.625Z,18.27
2018-02-15T08:04:11.178Z,18.40
2018-02-15T08:06:43.684Z,18.70
2018-02-15T08:09:16.220Z,18.03
2018-02-15T08:11:48.750Z,18.77
2018-02-15T08:14:21.284Z,19.07
2018-02-15T08:16:53.785Z,17.77
2018-02-15T08:19:26.325Z,18.07
2018-02-15T08:21:58.854Z,17.83
2018-02-15T08:24:31.396Z,18.00
2018-02-15T08:27:03.890Z,17.90
2018-02-15T08:29:36.422Z,17.10
2018-02-15T08:32:08.959Z,16.83
2018-02-15T08:34:41.492Z,17.60
2018-02-15T08:37:13.992Z,18.53
2018-02-15T08:39:46.547Z,17.27
2018-02-15T08:42:19.078Z,17.53
2018-02-15T08:44:51.632Z,18.43
2018-02-15T08:47:24.172Z,17.27
2018-02-15T08:49:56.703Z,17.07
2018-02-15T08:52:29.208Z,17.20
2018-02-15T08:55:01.732Z,16.57
2018-02-15T08:57:34.265Z,16.60
2018-02-15T09:00:06.789Z,17.23
2018-02-15T09:02:39.298Z,18.10
2018-02-15T09:05:11.836Z,17.37
2018-02-15T09:07:44.332Z,17.77
2018-02-15T09:10:16.861Z,15.93
2018-02-15T09:12:49.386Z,17.37
2018-02-15T09:15:21.922Z,17.33
2018-02-15T09:17:54.432Z,16.90
2018-02-15T09:20:26.972Z,17.73
2018-02-15T09:22:59.477Z,16.73
2018-02-15T09:25:32.016Z,16.97
2018-02-15T09:28:04.564Z,17.70
2018-02-15T09:30:37.073Z,17.80
2018-02-15T09:33:09.591Z,17.10
2018-02-15T09:35:42.264Z,16.93
2018-02-15T09:38:14.785Z,17.80
2018-02-15T09:40:47.372Z,17.13
2018-02-15T09:43:20.006Z,17.87
2018-02-15T09:45:52.532Z,17.77
2018-02-15T09:48:25.062Z,17.73
2018-02-15T09:50:57.580Z,15.87
2018-02-15T09:53:30.090Z,16.47
2018-02-15T09:56:02.739Z,17.30
2018-02-15T09:58:35.275Z,18.07
2018-02-15T10:01:07.809Z,16.67
2018-02-15T10:03:40.313Z,18.30
2018-02-15T10:06:12.839Z,16.63
2018-02-15T10:08:45.565Z,17.33
2018-02-15T10:11:18.095Z,17.93
2018-02-15T10:13:50.604Z,17.50
2018-02-15T10:16:23.126Z,18.47
2018-02-15T10:18:55.637Z,17.67
2018-02-15T10:21:28.164Z,17.37
2018-02-15T10:24:00.668Z,18.70
2018-02-15T10:26:33.195Z,18.43
2018-02-15T10:29:05.701Z,17.10
2018-02-15T10:31:38.228Z,18.70
2018-02-15T10:34:10.759Z,17.83
2018-02-15T10:36:43.270Z,17.70
2018-02-15T10:39:15.765Z,16.50
2018-02-15T10:41:48.293Z,18.13
2018-02-15T10:44:20.793Z,17.93
2018-02-15T10:46:53.314Z,18.07
2018-02-15T10:49:25.817Z,16.53
2018-02-15T10:51:58.350Z,17.70
2018-02-15T10:54:30.861Z,17.10
2018-02-15T10:57:03.389Z,17.67
2018-02-15T10:59:35.893Z,19.13
2018-02-15T11:02:14.129Z,17.10
2018-02-15T11:04:52.152Z,17.13
2018-02-15T11:07:24.682Z,16.90
2018-02-15T11:09:57.181Z,16.60
2018-02-15T11:12:29.705Z,17.37
2018-02-15T11:15:03.093Z,18.43
2018-02-15T11:17:35.620Z,15.87
2018-02-15T11:20:08.152Z,17.13
2018-02-15T11:22:40.683Z,17.07
2018-02-15T11:25:13.196Z,17.17
2018-02-15T11:27:45.740Z,17.63
2018-02-15T11:30:18.243Z,17.43
2018-02-15T11:32:50.778Z,17.63
2018-02-15T11:35:23.286Z,17.37
2018-02-15T11:37:55.827Z,17.30
2018-02-15T11:40:28.329Z,19.00
2018-02-15T11:43:00.844Z,18.23
2018-02-15T11:45:33.348Z,18.83
2018-02-15T11:48:05.872Z,18.37
2018-02-15T11:50:38.367Z,19.43
2018-02-15T11:53:10.889Z,19.10
2018-02-15T11:55:43.377Z,18.90
2018-02-15T11:58:15.899Z,19.40
2018-02-15T12:00:48.399Z,18.57
2018-02-15T12:03:20.931Z,19.53
2018-02-15T12:05:53.469Z,18.67
2018-02-15T12:08:25.971Z,19.07
2018-02-15T12:10:58.492Z,18.93
2018-02-15T12:13:31.009Z,20.17
2018-02-15T12:16:03.524Z,21.27
2018-02-15T12:18:36.041Z,21.27
2018-02-15T12:21:08.576Z,20.57
2018-02-15T12:23:41.095Z,21.70
2018-02-15T12:26:13.636Z,21.40
2018-02-15T12:28:46.149Z,21.30
2018-02-15T12:31:18.694Z,20.50
2018-02-15T12:33:51.241Z,20.53
2018-02-15T12:36:23.748Z,21.57
2018-02-15T12:38:56.260Z,21.87
2018-02-15T12:41:28.782Z,21.03
2018-02-15T12:44:01.299Z,21.33
2018-02-15T12:46:33.827Z,20.40
2018-02-15T12:49:06.326Z,20.93
2018-02-15T12:51:38.863Z,20.10
2018-02-15T12:54:11.359Z,18.90
2018-02-15T12:56:43.876Z,18.53
2018-02-15T12:59:16.408Z,18.67
2018-02-15T13:01:48.933Z,18.33
2018-02-15T13:04:21.433Z,17.97
2018-02-15T13:06:53.959Z,18.57
2018-02-15T13:09:26.462Z,18.93
2018-02-15T13:11:58.998Z,18.53
2018-02-15T13:14:31.521Z,18.60
2018-02-15T13:17:04.040Z,19.77
2018-02-15T13:19:48.288Z,19.33
2018-02-15T13:22:32.564Z,20.83
2018-02-15T13:25:05.072Z,19.33
2018-02-15T13:27:49.457Z,19.60
2018-02-15T13:30:21.969Z,21.10
2018-02-15T13:32:54.536Z,20.60
2018-02-15T13:35:27.030Z,19.60
2018-02-15T13:37:59.557Z,20.73
2018-02-15T13:40:32.070Z,20.83
2018-02-15T13:43:04.606Z,20.93
2018-02-15T13:45:37.120Z,23.43
2018-02-15T13:48:09.643Z,21.20
2018-02-15T13:50:42.148Z,22.50
2018-02-15T13:53:14.692Z,21.50
2018-02-15T13:58:26.037Z,21.93
2018-02-15T14:00:58.536Z,22.33
2018-02-15T14:03:31.067Z,22.10
2018-02-15T14:06:03.572Z,21.60
2018-02-15T14:08:36.117Z,20.40
2018-02-15T14:11:08.628Z,23.13
2018-02-15T14:13:41.159Z,22.73
2018-02-15T14:16:13.664Z,21.70
2018-02-15T14:18:46.190Z,22.13
2018-02-15T14:21:18.695Z,20.97
2018-02-15T14:23:51.217Z,21.20
2018-02-15T14:26:23.711Z,22.53
2018-02-15T14:28:56.251Z,22.67
2018-02-15T14:31:28.757Z,23.33
2018-02-15T14:34:01.272Z,22.20
2018-02-15T14:36:33.779Z,21.43
2018-02-15T14:39:06.301Z,22.27
2018-02-15T14:41:38.803Z,23.27
2018-02-15T14:44:11.330Z,21.67
2018-02-15T14:46:43.843Z,22.13
2018-02-15T14:49:16.366Z,22.73
2018-02-15T14:51:48.859Z,22.43
2018-02-15T14:54:21.390Z,23.10
2018-02-15T14:56:53.909Z,22.37
2018-02-15T14:59:26.436Z,21.00
2018-02-15T15:01:58.943Z,22.07
2018-02-15T15:04:31.460Z,22.80
2018-02-15T15:07:03.976Z,23.47
2018-02-15T15:09:36.493Z,21.80
2018-02-15T15:12:08.987Z,22.77
2018-02-15T15:14:41.502Z,23.27
2018-02-15T15:17:14.015Z,22.50
2018-02-15T15:19:46.557Z,22.77
2018-02-15T15:22:19.067Z,22.27
2018-02-15T15:24:51.605Z,23.10
2018-02-15T15:27:24.117Z,22.30
2018-02-15T15:29:56.651Z,23.20
2018-02-15T15:32:29.161Z,22.57
2018-02-15T15:35:01.685Z,23.77
2018-02-15T15:37:34.196Z,24.00
2018-02-15T15:40:07.767Z,22.63
2018-02-15T15:42:40.277Z,23.63
2018-02-15T15:45:12.815Z,21.97
2018-02-15T15:47:45.337Z,24.00
2018-02-15T15:50:17.854Z,22.60
2018-02-15T15:52:50.365Z,23.07
2018-02-15T15:55:22.912Z,21.17
2018-02-15T15:57:55.424Z,22.40
2018-02-15T16:00:27.951Z,20.73
2018-02-15T16:03:00.455Z,21.53
2018-02-15T16:05:32.976Z,22.63
2018-02-15T16:08:05.502Z,23.30
2018-02-15T16:10:38.045Z,22.87
2018-02-15T16:13:10.559Z,21.73
2018-02-15T16:15:43.083Z,21.57
2018-02-15T16:18:17.449Z,22.43
2018-02-15T16:20:51.065Z,21.73
2018-02-15T16:23:23.573Z,20.97
2018-02-15T16:25:56.112Z,21.90
2018-02-15T16:28:28.622Z,23.10
2018-02-15T16:31:01.167Z,22.37
2018-02-15T16:33:33.675Z,22.40
2018-02-15T16:36:06.218Z,23.63
2018-02-15T16:38:39.694Z,22.17
2018-02-15T16:41:12.224Z,22.47
2018-02-15T16:43:44.736Z,22.30
2018-02-15T16:46:17.267Z,23.93
2018-02-15T16:48:49.788Z,24.73
2018-02-15T16:51:22.332Z,21.37
2018-02-15T16:53:54.866Z,23.63
2018-02-15T16:56:27.406Z,25.07
2018-02-15T16:59:01.869Z,24.13
2018-02-15T17:01:34.385Z,24.93
2018-02-15T17:04:06.997Z,24.00
2018-02-15T17:06:39.499Z,22.43
2018-02-15T17:09:12.043Z,23.47
2018-02-15T17:11:44.570Z,23.77
2018-02-15T17:14:17.100Z,25.63
2018-02-15T17:16:49.659Z,24.60
2018-02-15T17:19:22.243Z,23.67
2018-02-15T17:21:54.757Z,25.00
2018-02-15T17:24:27.302Z,24.73
2018-02-15T17:26:59.814Z,26.73
2018-02-15T17:29:32.351Z,27.90
2018-02-15T17:32:04.864Z,25.37
2018-02-15T17:34:37.399Z,30.13
2018-02-15T17:37:09.922Z,25.97
2018-02-15T17:39:42.502Z,25.40
2018-02-15T17:42:15.040Z,29.43
2018-02-15T17:44:47.596Z,30.53
2018-02-15T17:47:20.116Z,27.50
2018-02-15T17:49:52.653Z,27.23
2018-02-15T17:52:25.181Z,30.63
2018-02-15T17:54:57.752Z,33.43
2018-02-15T17:57:31.134Z,29.10
2018-02-15T18:00:03.669Z,27.67
2018-02-15T18:02:36.216Z,29.27
2018-02-15T18:05:08.753Z,25.17
2018-02-15T18:07:41.270Z,27.77
2018-02-15T18:10:13.805Z,25.40
2018-02-15T18:12:46.322Z,33.57
2018-02-15T18:15:18.954Z,28.37
2018-02-15T18:17:51.486Z,47.80
2018-02-15T18:20:24.037Z,38.43
2018-02-15T18:22:56.587Z,33.70
2018-02-15T18:25:29.128Z,36.27
2018-02-15T18:28:01.739Z,33.50
2018-02-15T18:30:34.304Z,33.63
2018-02-15T18:33:06.820Z,36.97
2018-02-15T18:35:39.512Z,50.57
2018-02-15T18:38:12.098Z,88.80
2018-02-15T18:40:44.631Z,41.83
2018-02-15T18:43:17.141Z,38.10
2018-02-15T18:45:49.688Z,35.30
2018-02-15T18:48:22.185Z,39.43
2018-02-15T18:50:54.734Z,37.07
2018-02-15T18:53:27.246Z,40.13
2018-02-15T18:55:59.833Z,43.50
2018-02-15T18:58:32.353Z,42.70
2018-02-15T19:01:04.891Z,42.90
2018-02-15T19:03:37.405Z,48.93
2018-02-15T19:06:09.961Z,40.40
2018-02-15T19:08:42.487Z,45.53
2018-02-15T19:11:15.030Z,38.10
2018-02-15T19:13:47.583Z,45.10
2018-02-15T19:16:20.117Z,41.50
2018-02-15T19:18:52.634Z,48.50
2018-02-15T19:21:25.176Z,42.93
2018-02-15T19:23:57.693Z,46.10
2018-02-15T19:26:30.232Z,37.93
2018-02-15T19:29:03.873Z,47.33
2018-02-15T19:31:36.447Z,47.60
2018-02-15T19:34:08.966Z,48.23
2018-02-15T19:36:41.505Z,43.87
2018-02-15T19:39:14.010Z,40.23
2018-02-15T19:41:46.978Z,46.93
2018-02-15T19:44:19.527Z,47.43
2018-02-15T19:46:52.077Z,37.20
2018-02-15T19:49:24.635Z,55.20
2018-02-15T19:51:57.173Z,42.37
2018-02-15T19:54:29.687Z,40.53
2018-02-15T19:57:02.292Z,39.93
2018-02-15T19:59:34.806Z,40.03
2018-02-15T20:02:07.352Z,39.67
2018-02-15T20:04:39.883Z,42.90
2018-02-15T20:07:12.461Z,39.20
2018-02-15T20:09:44.985Z,46.20
2018-02-15T20:12:18.297Z,46.30
2018-02-15T20:14:50.914Z,41.70
2018-02-15T20:17:23.536Z,41.33
2018-02-15T20:20:01.644Z,44.47
2018-02-15T20:22:34.164Z,48.10
2018-02-15T20:25:06.695Z,43.87
2018-02-15T20:30:55.730Z,51.03
2018-02-15T20:33:28.271Z,42.00
2018-02-15T20:36:00.825Z,53.43
2018-02-15T20:38:38.956Z,59.90
2018-02-15T20:41:11.530Z,44.93
2018-02-15T20:43:49.426Z,39.90
2018-02-15T20:46:21.959Z,60.70
2018-02-15T20:48:54.476Z,40.97
2018-02-15T20:51:32.680Z,53.27
2018-02-15T20:54:10.869Z,51.77
2018-02-15T20:56:43.405Z,43.73
2018-02-15T20:59:15.948Z,45.33
2018-02-15T21:01:48.496Z,53.03
2018-02-15T21:04:21.024Z,60.53
2018-02-15T21:06:53.566Z,52.33
2018-02-15T21:09:26.088Z,69.63
2018-02-15T21:11:58.625Z,47.33
2018-02-15T21:14:31.149Z,52.53
2018-02-15T21:17:03.696Z,41.63
2018-02-15T21:19:36.221Z,70.37
2018-02-15T21:22:08.763Z,47.67
2018-02-15T21:24:41.291Z,46.83
2018-02-15T21:27:13.836Z,46.77
2018-02-15T21:29:46.365Z,49.17
2018-02-15T21:32:18.909Z,47.43
2018-02-15T21:34:51.511Z,48.80
2018-02-15T21:37:24.029Z,45.17
2018-02-15T21:39:56.543Z,46.33
2018-02-15T21:42:29.067Z,45.93
2018-02-15T21:45:01.573Z,47.57
2018-02-15T21:47:34.105Z,52.23
2018-02-15T21:50:06.626Z,44.77
2018-02-15T21:52:39.175Z,56.17
2018-02-15T21:55:11.689Z,57.77
2018-02-15T21:57:44.243Z,44.13
2018-02-15T22:00:16.774Z,45.50
2018-02-15T22:02:49.341Z,49.17
2018-02-15T22:05:21.926Z,44.90
2018-02-15T22:07:54.483Z,49.87
2018-02-15T22:10:27.020Z,45.23
2018-02-15T22:12:59.576Z,45.90
2018-02-15T22:15:32.100Z,46.70
2018-02-15T22:18:04.634Z,48.23
2018-02-15T22:20:37.144Z,57.80
2018-02-15T22:23:09.684Z,46.13
2018-02-15T22:25:42.213Z,46.90
2018-02-15T22:28:14.774Z,50.43
2018-02-15T22:30:47.304Z,44.00
2018-02-15T22:33:19.861Z,46.70
2018-02-15T22:35:52.387Z,43.07
2018-02-15T22:38:24.929Z,53.27
2018-02-15T22:40:57.477Z,48.60
2018-02-15T22:43:30.028Z,46.07
2018-02-15T22:46:02.566Z,52.07
2018-02-15T22:48:35.119Z,45.40
2018-02-15T22:51:07.647Z,44.40
2018-02-15T22:53:40.212Z,44.47
2018-02-15T22:56:12.750Z,46.17
2018-02-15T22:58:45.292Z,51.03
2018-02-15T23:01:17.830Z,44.60
2018-02-15T23:03:50.588Z,43.07
2018-02-15T23:06:23.115Z,43.57
2018-02-15T23:08:55.672Z,49.10
2018-02-15T23:11:28.225Z,47.80
2018-02-15T23:14:00.797Z,50.87
2018-02-15T23:16:33.423Z,45.10
2018-02-15T23:19:05.992Z,47.13
2018-02-15T23:21:38.584Z,45.77
2018-02-15T23:24:11.081Z,43.93
2018-02-15T23:26:43.629Z,48.03
2018-02-15T23:29:16.159Z,43.10
2018-02-15T23:31:48.708Z,49.70
2018-02-15T23:34:21.216Z,41.87
2018-02-15T23:36:53.749Z,40.53
2018-02-15T23:39:26.276Z,43.53
2018-02-15T23:41:58.815Z,48.53
2018-02-15T23:44:31.351Z,44.03
2018-02-15T23:47:03.874Z,44.23
2018-02-15T23:49:36.405Z,44.40
2018-02-15T23:52:08.952Z,44.00
2018-02-15T23:54:41.462Z,43.63
2018-02-15T23:57:14.036Z,43.90
2018-02-15T23:59:46.565Z,50.30
